sensor_id;sensor_type;location;lat;lon;timestamp;pressure;altitude;pressure_sealevel;temperature;humidity
72124;BME280;63818;37.134;-8.548;2024-02-04T00:01:36;102670.7;;;14.6;71.3
72124;BME280;63818;37.134;-8.548;2024-02-04T00:06:29;102664.0;;;14.5;71.5
72124;BME280;63818;37.134;-8.548;2024-02-04T00:11:18;102666.8;;;14.4;71.8
72124;BME280;63818;37.134;-8.548;2024-02-04T00:16:08;102660.1;;;14.4;71.7
72124;BME280;63818;37.134;-8.548;2024-02-04T00:20:56;102657.9;;;14.3;71.7
72124;BME280;63818;37.134;-8.548;2024-02-04T00:25:50;102657.1;;;14.3;72.1
72124;BME280;63818;37.134;-8.548;2024-02-04T00:30:38;102650.1;;;14.3;71.7
72124;BME280;63818;37.134;-8.548;2024-02-04T00:35:27;102641.2;;;14.3;71.7
72124;BME280;63818;37.134;-8.548;2024-02-04T00:40:17;102638.0;;;14.2;72.1
72124;BME280;63818;37.134;-8.548;2024-02-04T00:45:06;102633.7;;;14.2;71.8
72124;BME280;63818;37.134;-8.548;2024-02-04T00:49:54;102638.6;;;14.2;71.7
72124;BME280;63818;37.134;-8.548;2024-02-04T00:54:48;102638.9;;;14.1;72.1
72124;BME280;63818;37.134;-8.548;2024-02-04T00:59:36;102637.6;;;14.1;72.2
72124;BME280;63818;37.134;-8.548;2024-02-04T01:04:25;102627.9;;;14.1;71.9
72124;BME280;63818;37.134;-8.548;2024-02-04T01:09:15;102630.6;;;14.1;71.9
72124;BME280;63818;37.134;-8.548;2024-02-04T01:14:03;102641.4;;;14.1;71.8
72124;BME280;63818;37.134;-8.548;2024-02-04T01:18:51;102633.3;;;14.1;71.4
72124;BME280;63818;37.134;-8.548;2024-02-04T01:23:39;102626.0;;;14.0;71.5
72124;BME280;63818;37.134;-8.548;2024-02-04T01:28:39;102626.0;;;14.0;71.8
72124;BME280;63818;37.134;-8.548;2024-02-04T01:33:27;102620.6;;;14.0;71.4
72124;BME280;63818;37.134;-8.548;2024-02-04T01:38:15;102623.9;;;14.0;71.5
72124;BME280;63818;37.134;-8.548;2024-02-04T01:43:03;102621.7;;;14.0;71.5
72124;BME280;63818;37.134;-8.548;2024-02-04T01:47:51;102620.4;;;14.0;72.1
72124;BME280;63818;37.134;-8.548;2024-02-04T01:52:42;102621.7;;;14.0;71.9
72124;BME280;63818;37.134;-8.548;2024-02-04T01:57:32;102621.8;;;14.0;71.6
72124;BME280;63818;37.134;-8.548;2024-02-04T02:02:20;102615.0;;;14.0;72.0
72124;BME280;63818;37.134;-8.548;2024-02-04T02:07:11;102615.8;;;14.0;71.9
72124;BME280;63818;37.134;-8.548;2024-02-04T02:12:03;102620.1;;;13.9;71.8
72124;BME280;63818;37.134;-8.548;2024-02-04T02:16:54;102611.5;;;13.9;71.4
72124;BME280;63818;37.134;-8.548;2024-02-04T02:22:02;102609.9;;;13.9;71.8
72124;BME280;63818;37.134;-8.548;2024-02-04T02:26:50;102601.5;;;13.9;72.2
72124;BME280;63818;37.134;-8.548;2024-02-04T02:31:47;102611.6;;;13.9;71.6
72124;BME280;63818;37.134;-8.548;2024-02-04T02:36:41;102594.6;;;13.8;72.4
72124;BME280;63818;37.134;-8.548;2024-02-04T02:41:32;102597.4;;;13.7;72.4
72124;BME280;63818;37.134;-8.548;2024-02-04T02:46:22;102587.9;;;13.8;72.6
72124;BME280;63818;37.134;-8.548;2024-02-04T02:51:11;102580.9;;;13.7;73.1
72124;BME280;63818;37.134;-8.548;2024-02-04T02:56:02;102571.2;;;13.7;72.8
72124;BME280;63818;37.134;-8.548;2024-02-04T03:00:50;102569.4;;;13.6;72.4
72124;BME280;63818;37.134;-8.548;2024-02-04T03:05:38;102582.1;;;13.6;73.1
72124;BME280;63818;37.134;-8.548;2024-02-04T03:10:26;102584.8;;;13.5;73.1
72124;BME280;63818;37.134;-8.548;2024-02-04T03:15:14;102581.3;;;13.5;73.8
72124;BME280;63818;37.134;-8.548;2024-02-04T03:20:05;102574.9;;;13.5;73.4
72124;BME280;63818;37.134;-8.548;2024-02-04T03:24:53;102581.6;;;13.4;73.8
72124;BME280;63818;37.134;-8.548;2024-02-04T03:29:41;102579.2;;;13.4;73.7
72124;BME280;63818;37.134;-8.548;2024-02-04T03:34:29;102592.5;;;13.4;74.2
72124;BME280;63818;37.134;-8.548;2024-02-04T03:39:17;102586.9;;;13.3;74.1
72124;BME280;63818;37.134;-8.548;2024-02-04T03:44:06;102590.4;;;13.3;74.4
72124;BME280;63818;37.134;-8.548;2024-02-04T03:48:54;102589.3;;;13.3;74.6
72124;BME280;63818;37.134;-8.548;2024-02-04T03:53:42;102592.2;;;13.4;74.9
72124;BME280;63818;37.134;-8.548;2024-02-04T03:58:34;102593.3;;;13.4;74.5
72124;BME280;63818;37.134;-8.548;2024-02-04T04:03:29;102583.1;;;13.3;74.6
72124;BME280;63818;37.134;-8.548;2024-02-04T04:08:17;102582.3;;;13.3;74.5
72124;BME280;63818;37.134;-8.548;2024-02-04T04:13:08;102578.5;;;13.2;75.1
72124;BME280;63818;37.134;-8.548;2024-02-04T04:17:56;102579.6;;;13.2;75.0
72124;BME280;63818;37.134;-8.548;2024-02-04T04:22:44;102586.1;;;13.2;75.6
72124;BME280;63818;37.134;-8.548;2024-02-04T04:27:32;102579.1;;;13.2;75.8
72124;BME280;63818;37.134;-8.548;2024-02-04T04:32:27;102571.2;;;13.2;75.4
72124;BME280;63818;37.134;-8.548;2024-02-04T04:37:15;102571.5;;;13.2;75.4
72124;BME280;63818;37.134;-8.548;2024-02-04T04:42:03;102574.0;;;13.1;75.8
72124;BME280;63818;37.134;-8.548;2024-02-04T04:46:51;102576.1;;;13.1;75.8
72124;BME280;63818;37.134;-8.548;2024-02-04T04:51:39;102570.5;;;13.1;75.5
72124;BME280;63818;37.134;-8.548;2024-02-04T04:56:27;102573.7;;;13.1;75.8
72124;BME280;63818;37.134;-8.548;2024-02-04T05:01:15;102579.1;;;13.1;75.9
72124;BME280;63818;37.134;-8.548;2024-02-04T05:06:03;102577.8;;;13.0;76.6
72124;BME280;63818;37.134;-8.548;2024-02-04T05:10:51;102583.2;;;13.0;75.9
72124;BME280;63818;37.134;-8.548;2024-02-04T05:15:39;102577.8;;;13.0;76.4
72124;BME280;63818;37.134;-8.548;2024-02-04T05:20:30;102593.2;;;13.0;76.1
72124;BME280;63818;37.134;-8.548;2024-02-04T05:25:18;102587.3;;;13.0;76.2
72124;BME280;63818;37.134;-8.548;2024-02-04T05:30:07;102585.1;;;13.0;76.5
72124;BME280;63818;37.134;-8.548;2024-02-04T05:34:55;102588.7;;;12.9;76.4
72124;BME280;63818;37.134;-8.548;2024-02-04T05:39:44;102582.0;;;12.9;76.2
72124;BME280;63818;37.134;-8.548;2024-02-04T05:44:31;102596.5;;;12.8;76.7
72124;BME280;63818;37.134;-8.548;2024-02-04T05:49:19;102592.2;;;12.8;76.4
72124;BME280;63818;37.134;-8.548;2024-02-04T05:54:07;102601.1;;;12.8;76.0
72124;BME280;63818;37.134;-8.548;2024-02-04T05:58:55;102603.8;;;12.8;76.4
72124;BME280;63818;37.134;-8.548;2024-02-04T06:03:46;102601.1;;;12.8;76.2
72124;BME280;63818;37.134;-8.548;2024-02-04T06:08:34;102603.8;;;12.8;76.5
72124;BME280;63818;37.134;-8.548;2024-02-04T06:13:22;102602.5;;;12.8;76.6
72124;BME280;63818;37.134;-8.548;2024-02-04T06:18:10;102613.8;;;12.8;76.6
72124;BME280;63818;37.134;-8.548;2024-02-04T06:22:57;102612.7;;;12.7;76.2
72124;BME280;63818;37.134;-8.548;2024-02-04T06:27:48;102612.2;;;12.7;76.7
72124;BME280;63818;37.134;-8.548;2024-02-04T06:32:36;102611.7;;;12.6;77.1
72124;BME280;63818;37.134;-8.548;2024-02-04T06:37:24;102617.1;;;12.6;77.4
72124;BME280;63818;37.134;-8.548;2024-02-04T06:42:12;102614.9;;;12.7;77.4
72124;BME280;63818;37.134;-8.548;2024-02-04T06:47:00;102608.7;;;12.7;77.8
72124;BME280;63818;37.134;-8.548;2024-02-04T06:51:52;102617.6;;;12.7;77.4
72124;BME280;63818;37.134;-8.548;2024-02-04T06:56:41;102615.7;;;12.7;77.7
72124;BME280;63818;37.134;-8.548;2024-02-04T07:01:34;102617.1;;;12.6;77.5
72124;BME280;63818;37.134;-8.548;2024-02-04T07:06:22;102622.8;;;12.6;77.1
72124;BME280;63818;37.134;-8.548;2024-02-04T07:11:10;102629.2;;;12.6;77.5
72124;BME280;63818;37.134;-8.548;2024-02-04T07:15:58;102627.1;;;12.6;77.0
72124;BME280;63818;37.134;-8.548;2024-02-04T07:20:48;102641.9;;;12.6;77.5
72124;BME280;63818;37.134;-8.548;2024-02-04T07:25:36;102648.4;;;12.6;77.4
72124;BME280;63818;37.134;-8.548;2024-02-04T07:30:27;102651.3;;;12.5;77.1
72124;BME280;63818;37.134;-8.548;2024-02-04T07:35:15;102649.7;;;12.5;77.4
72124;BME280;63818;37.134;-8.548;2024-02-04T07:40:04;102655.1;;;12.5;77.6
72124;BME280;63818;37.134;-8.548;2024-02-04T07:44:52;102655.4;;;12.5;77.8
72124;BME280;63818;37.134;-8.548;2024-02-04T07:49:40;102662.4;;;12.5;78.0
72124;BME280;63818;37.134;-8.548;2024-02-04T07:54:29;102670.8;;;12.6;77.8
72124;BME280;63818;37.134;-8.548;2024-02-04T07:59:19;102676.7;;;12.6;77.9
72124;BME280;63818;37.134;-8.548;2024-02-04T08:04:08;102677.2;;;12.6;77.7
72124;BME280;63818;37.134;-8.548;2024-02-04T08:08:59;102685.6;;;12.6;78.5
72124;BME280;63818;37.134;-8.548;2024-02-04T08:13:52;102696.1;;;12.6;78.6
72124;BME280;63818;37.134;-8.548;2024-02-04T08:18:41;102696.4;;;12.7;79.0
72124;BME280;63818;37.134;-8.548;2024-02-04T08:23:31;102699.9;;;12.7;79.1
72124;BME280;63818;37.134;-8.548;2024-02-04T08:28:24;102701.5;;;12.7;79.2
72124;BME280;63818;37.134;-8.548;2024-02-04T08:33:12;102702.6;;;12.7;79.8
72124;BME280;63818;37.134;-8.548;2024-02-04T08:38:00;102707.1;;;12.8;79.8
72124;BME280;63818;37.134;-8.548;2024-02-04T08:42:48;102715.8;;;12.9;80.6
72124;BME280;63818;37.134;-8.548;2024-02-04T08:47:36;102727.6;;;12.9;80.6
72124;BME280;63818;37.134;-8.548;2024-02-04T08:52:27;102726.8;;;12.9;80.6
72124;BME280;63818;37.134;-8.548;2024-02-04T08:57:15;102730.6;;;13.0;81.0
72124;BME280;63818;37.134;-8.548;2024-02-04T09:02:11;102735.1;;;13.0;81.4
72124;BME280;63818;37.134;-8.548;2024-02-04T09:07:08;102745.9;;;13.1;81.6
72124;BME280;63818;37.134;-8.548;2024-02-04T09:11:56;102749.2;;;13.1;81.6
72124;BME280;63818;37.134;-8.548;2024-02-04T09:16:44;102751.8;;;13.2;82.1
72124;BME280;63818;37.134;-8.548;2024-02-04T09:21:33;102760.7;;;13.3;81.9
72124;BME280;63818;37.134;-8.548;2024-02-04T09:26:21;102760.2;;;13.3;82.3
72124;BME280;63818;37.134;-8.548;2024-02-04T09:31:09;102757.2;;;13.4;82.9
72124;BME280;63818;37.134;-8.548;2024-02-04T09:35:58;102762.3;;;13.4;83.1
72124;BME280;63818;37.134;-8.548;2024-02-04T09:40:51;102769.6;;;13.5;83.8
72124;BME280;63818;37.134;-8.548;2024-02-04T09:45:40;102769.5;;;13.6;83.9
72124;BME280;63818;37.134;-8.548;2024-02-04T09:50:30;102778.7;;;13.6;83.9
72124;BME280;63818;37.134;-8.548;2024-02-04T09:55:20;102783.0;;;13.7;84.2
72124;BME280;63818;37.134;-8.548;2024-02-04T10:00:08;102787.5;;;13.7;84.4
72124;BME280;63818;37.134;-8.548;2024-02-04T10:05:01;102783.7;;;13.8;84.5
72124;BME280;63818;37.134;-8.548;2024-02-04T10:09:50;102776.1;;;13.8;84.6
72124;BME280;63818;37.134;-8.548;2024-02-04T10:14:51;102782.6;;;13.9;85.0
72124;BME280;63818;37.134;-8.548;2024-02-04T10:19:41;102790.9;;;14.0;84.5
72124;BME280;63818;37.134;-8.548;2024-02-04T10:24:29;102785.0;;;14.0;84.2
72124;BME280;63818;37.134;-8.548;2024-02-04T10:29:20;102793.3;;;14.0;84.2
72124;BME280;63818;37.134;-8.548;2024-02-04T10:34:08;102790.0;;;14.1;84.4
72124;BME280;63818;37.134;-8.548;2024-02-04T10:38:58;102801.4;;;14.1;84.5
72124;BME280;63818;37.134;-8.548;2024-02-04T10:43:52;102795.1;;;14.1;84.1
72124;BME280;63818;37.134;-8.548;2024-02-04T10:48:41;102795.9;;;14.2;84.2
72124;BME280;63818;37.134;-8.548;2024-02-04T10:53:30;102794.8;;;14.2;83.7
72124;BME280;63818;37.134;-8.548;2024-02-04T10:58:19;102799.2;;;14.2;83.7
72124;BME280;63818;37.134;-8.548;2024-02-04T11:03:08;102797.0;;;14.3;83.7
72124;BME280;63818;37.134;-8.548;2024-02-04T11:07:57;102798.5;;;14.4;83.1
72124;BME280;63818;37.134;-8.548;2024-02-04T11:12:50;102792.0;;;14.4;82.3
72124;BME280;63818;37.134;-8.548;2024-02-04T11:17:53;102784.9;;;14.5;80.1
72124;BME280;63818;37.134;-8.548;2024-02-04T11:22:57;102772.9;;;14.6;78.6
72124;BME280;63818;37.134;-8.548;2024-02-04T11:27:51;102760.4;;;14.7;76.2
72124;BME280;63818;37.134;-8.548;2024-02-04T11:32:42;102759.8;;;14.8;74.2
72124;BME280;63818;37.134;-8.548;2024-02-04T11:37:31;102754.2;;;14.9;74.0
72124;BME280;63818;37.134;-8.548;2024-02-04T11:42:19;102745.8;;;15.0;74.2
72124;BME280;63818;37.134;-8.548;2024-02-04T11:47:08;102747.4;;;15.0;74.0
72124;BME280;63818;37.134;-8.548;2024-02-04T11:51:56;102740.5;;;15.1;74.1
72124;BME280;63818;37.134;-8.548;2024-02-04T11:56:45;102744.0;;;15.1;74.6
72124;BME280;63818;37.134;-8.548;2024-02-04T12:01:36;102730.1;;;15.2;73.3
72124;BME280;63818;37.134;-8.548;2024-02-04T12:06:24;102733.6;;;15.2;72.7
72124;BME280;63818;37.134;-8.548;2024-02-04T12:11:12;102719.4;;;15.3;72.0
72124;BME280;63818;37.134;-8.548;2024-02-04T12:16:01;102722.1;;;15.3;72.0
72124;BME280;63818;37.134;-8.548;2024-02-04T12:20:54;102717.2;;;15.4;72.3
72124;BME280;63818;37.134;-8.548;2024-02-04T12:25:43;102718.2;;;15.4;71.8
72124;BME280;63818;37.134;-8.548;2024-02-04T12:30:32;102710.8;;;15.4;71.7
72124;BME280;63818;37.134;-8.548;2024-02-04T12:35:25;102707.0;;;15.5;71.4
72124;BME280;63818;37.134;-8.548;2024-02-04T12:40:38;102703.4;;;15.5;71.3
72124;BME280;63818;37.134;-8.548;2024-02-04T12:45:26;102695.1;;;15.5;71.1
72124;BME280;63818;37.134;-8.548;2024-02-04T12:50:14;102686.6;;;15.6;71.2
72124;BME280;63818;37.134;-8.548;2024-02-04T12:55:02;102687.6;;;15.6;71.4
72124;BME280;63818;37.134;-8.548;2024-02-04T13:00:03;102680.3;;;15.6;69.3
72124;BME280;63818;37.134;-8.548;2024-02-04T13:04:46;102681.3;;;15.7;68.9
72124;BME280;63818;37.134;-8.548;2024-02-04T13:09:34;102677.0;;;15.7;68.2
72124;BME280;63818;37.134;-8.548;2024-02-04T13:14:24;102656.1;;;15.7;68.2
72124;BME280;63818;37.134;-8.548;2024-02-04T13:19:13;102655.3;;;15.7;67.9
72124;BME280;63818;37.134;-8.548;2024-02-04T13:24:03;102643.9;;;15.7;67.6
72124;BME280;63818;37.134;-8.548;2024-02-04T13:28:51;102636.5;;;15.8;67.5
72124;BME280;63818;37.134;-8.548;2024-02-04T13:33:40;102631.6;;;15.7;66.5
72124;BME280;63818;37.134;-8.548;2024-02-04T13:38:31;102628.6;;;15.7;68.0
72124;BME280;63818;37.134;-8.548;2024-02-04T13:43:19;102627.8;;;15.8;68.7
72124;BME280;63818;37.134;-8.548;2024-02-04T13:48:18;102619.8;;;15.8;69.4
72124;BME280;63818;37.134;-8.548;2024-02-04T13:53:06;102607.7;;;15.9;69.4
72124;BME280;63818;37.134;-8.548;2024-02-04T13:57:56;102609.5;;;16.0;69.6
72124;BME280;63818;37.134;-8.548;2024-02-04T14:02:44;102607.6;;;16.0;69.9
72124;BME280;63818;37.134;-8.548;2024-02-04T14:07:32;102601.9;;;16.0;70.8
72124;BME280;63818;37.134;-8.548;2024-02-04T14:12:26;102593.7;;;16.0;71.3
72124;BME280;63818;37.134;-8.548;2024-02-04T14:17:14;102598.7;;;16.1;71.8
72124;BME280;63818;37.134;-8.548;2024-02-04T14:22:04;102588.1;;;16.1;72.2
72124;BME280;63818;37.134;-8.548;2024-02-04T14:27:00;102593.6;;;16.2;71.7
72124;BME280;63818;37.134;-8.548;2024-02-04T14:31:48;102580.0;;;16.3;71.2
72124;BME280;63818;37.134;-8.548;2024-02-04T14:36:37;102571.3;;;16.4;69.6
72124;BME280;63818;37.134;-8.548;2024-02-04T14:41:26;102563.5;;;16.5;69.8
72124;BME280;63818;37.134;-8.548;2024-02-04T14:46:14;102557.7;;;16.6;69.6
72124;BME280;63818;37.134;-8.548;2024-02-04T14:51:05;102558.9;;;16.7;68.5
72124;BME280;63818;37.134;-8.548;2024-02-04T14:55:55;102556.2;;;16.9;67.9
72124;BME280;63818;37.134;-8.548;2024-02-04T15:00:47;102553.1;;;17.3;67.1
72124;BME280;63818;37.134;-8.548;2024-02-04T15:05:37;102549.1;;;17.6;66.5
72124;BME280;63818;37.134;-8.548;2024-02-04T15:10:25;102544.5;;;18.0;64.8
72124;BME280;63818;37.134;-8.548;2024-02-04T15:15:15;102545.0;;;18.5;63.5
72124;BME280;63818;37.134;-8.548;2024-02-04T15:20:09;102537.7;;;18.3;63.5
72124;BME280;63818;37.134;-8.548;2024-02-04T15:24:57;102541.7;;;18.4;63.5
72124;BME280;63818;37.134;-8.548;2024-02-04T15:29:47;102546.7;;;18.6;62.7
72124;BME280;63818;37.134;-8.548;2024-02-04T15:34:35;102541.0;;;19.0;62.7
72124;BME280;63818;37.134;-8.548;2024-02-04T15:39:24;102550.1;;;19.2;62.0
72124;BME280;63818;37.134;-8.548;2024-02-04T15:44:12;102559.4;;;19.5;61.1
72124;BME280;63818;37.134;-8.548;2024-02-04T15:49:03;102549.9;;;19.7;60.8
72124;BME280;63818;37.134;-8.548;2024-02-04T15:54:06;102555.7;;;19.8;60.6
72124;BME280;63818;37.134;-8.548;2024-02-04T15:59:02;102555.0;;;19.8;60.7
72124;BME280;63818;37.134;-8.548;2024-02-04T16:03:55;102556.2;;;19.6;61.2
72124;BME280;63818;37.134;-8.548;2024-02-04T16:08:43;102561.3;;;19.5;61.4
72124;BME280;63818;37.134;-8.548;2024-02-04T16:13:39;102568.7;;;19.5;61.3
72124;BME280;63818;37.134;-8.548;2024-02-04T16:18:27;102567.1;;;19.2;62.9
72124;BME280;63818;37.134;-8.548;2024-02-04T16:23:17;102575.2;;;18.9;64.1
72124;BME280;63818;37.134;-8.548;2024-02-04T16:28:08;102566.4;;;18.6;65.2
72124;BME280;63818;37.134;-8.548;2024-02-04T16:32:55;102567.5;;;18.3;67.0
72124;BME280;63818;37.134;-8.548;2024-02-04T16:37:46;102574.6;;;18.1;67.7
72124;BME280;63818;37.134;-8.548;2024-02-04T16:42:35;102578.7;;;18.1;68.5
72124;BME280;63818;37.134;-8.548;2024-02-04T16:47:30;102585.1;;;18.0;69.0
72124;BME280;63818;37.134;-8.548;2024-02-04T16:52:18;102591.6;;;18.1;68.7
72124;BME280;63818;37.134;-8.548;2024-02-04T17:01:59;102592.1;;;17.9;70.2
72124;BME280;63818;37.134;-8.548;2024-02-04T17:06:48;102601.5;;;17.8;70.6
72124;BME280;63818;37.134;-8.548;2024-02-04T17:11:37;102600.5;;;17.6;71.0
72124;BME280;63818;37.134;-8.548;2024-02-04T17:16:32;102612.2;;;17.5;72.2
72124;BME280;63818;37.134;-8.548;2024-02-04T17:21:33;102616.8;;;17.4;72.5
72124;BME280;63818;37.134;-8.548;2024-02-04T17:26:27;102618.3;;;17.3;72.8
72124;BME280;63818;37.134;-8.548;2024-02-04T17:31:18;102629.9;;;17.2;73.2
72124;BME280;63818;37.134;-8.548;2024-02-04T17:36:06;102638.5;;;17.2;73.8
72124;BME280;63818;37.134;-8.548;2024-02-04T17:40:54;102647.8;;;17.1;74.0
72124;BME280;63818;37.134;-8.548;2024-02-04T17:45:44;102638.2;;;17.0;74.9
72124;BME280;63818;37.134;-8.548;2024-02-04T17:50:34;102638.3;;;17.0;75.2
72124;BME280;63818;37.134;-8.548;2024-02-04T17:55:24;102634.1;;;16.9;75.4
72124;BME280;63818;37.134;-8.548;2024-02-04T18:00:13;102633.9;;;16.9;76.0
72124;BME280;63818;37.134;-8.548;2024-02-04T18:05:08;102639.7;;;16.8;76.0
72124;BME280;63818;37.134;-8.548;2024-02-04T18:09:55;102632.0;;;16.8;76.7
72124;BME280;63818;37.134;-8.548;2024-02-04T18:14:45;102638.3;;;16.7;77.1
72124;BME280;63818;37.134;-8.548;2024-02-04T18:24:23;102644.0;;;16.6;77.4
72124;BME280;63818;37.134;-8.548;2024-02-04T18:34:03;102646.0;;;16.5;78.2
72124;BME280;63818;37.134;-8.548;2024-02-04T18:38:54;102649.0;;;16.5;78.4
72124;BME280;63818;37.134;-8.548;2024-02-04T18:43:45;102649.9;;;16.5;78.9
72124;BME280;63818;37.134;-8.548;2024-02-04T18:48:33;102660.6;;;16.4;79.2
72124;BME280;63818;37.134;-8.548;2024-02-04T18:53:30;102662.3;;;16.4;79.1
72124;BME280;63818;37.134;-8.548;2024-02-04T18:58:18;102663.7;;;16.4;79.8
72124;BME280;63818;37.134;-8.548;2024-02-04T19:03:19;102665.4;;;16.3;79.6
72124;BME280;63818;37.134;-8.548;2024-02-04T19:08:07;102671.4;;;16.3;80.1
72124;BME280;63818;37.134;-8.548;2024-02-04T19:12:57;102667.7;;;16.2;80.0
72124;BME280;63818;37.134;-8.548;2024-02-04T19:17:45;102666.9;;;16.2;80.3
72124;BME280;63818;37.134;-8.548;2024-02-04T19:22:34;102669.0;;;16.2;80.8
72124;BME280;63818;37.134;-8.548;2024-02-04T19:27:22;102665.3;;;16.2;80.5
72124;BME280;63818;37.134;-8.548;2024-02-04T19:32:12;102668.0;;;16.2;81.0
72124;BME280;63818;37.134;-8.548;2024-02-04T19:37:06;102679.2;;;16.2;81.0
72124;BME280;63818;37.134;-8.548;2024-02-04T19:41:54;102669.2;;;16.1;81.0
72124;BME280;63818;37.134;-8.548;2024-02-04T19:46:42;102676.0;;;16.1;81.1
72124;BME280;63818;37.134;-8.548;2024-02-04T19:51:43;102681.0;;;16.1;81.4
72124;BME280;63818;37.134;-8.548;2024-02-04T19:56:33;102682.4;;;16.0;81.1
72124;BME280;63818;37.134;-8.548;2024-02-04T20:01:22;102684.1;;;15.9;81.6
72124;BME280;63818;37.134;-8.548;2024-02-04T20:06:10;102691.5;;;15.9;81.6
72124;BME280;63818;37.134;-8.548;2024-02-04T20:10:57;102699.9;;;15.9;81.7
72124;BME280;63818;37.134;-8.548;2024-02-04T20:15:46;102696.4;;;15.9;81.9
72124;BME280;63818;37.134;-8.548;2024-02-04T20:20:36;102703.7;;;15.9;82.4
72124;BME280;63818;37.134;-8.548;2024-02-04T20:25:25;102712.1;;;15.9;82.6
72124;BME280;63818;37.134;-8.548;2024-02-04T20:30:22;102711.1;;;15.9;82.7
72124;BME280;63818;37.134;-8.548;2024-02-04T20:35:10;102717.4;;;15.8;82.8
72124;BME280;63818;37.134;-8.548;2024-02-04T20:39:58;102720.9;;;15.8;82.6
72124;BME280;63818;37.134;-8.548;2024-02-04T20:44:51;102730.1;;;15.8;82.5
72124;BME280;63818;37.134;-8.548;2024-02-04T20:49:39;102725.3;;;15.8;82.6
72124;BME280;63818;37.134;-8.548;2024-02-04T20:54:28;102725.6;;;15.8;82.9
72124;BME280;63818;37.134;-8.548;2024-02-04T20:59:18;102731.6;;;15.7;82.8
72124;BME280;63818;37.134;-8.548;2024-02-04T21:04:06;102735.4;;;15.7;82.9
72124;BME280;63818;37.134;-8.548;2024-02-04T21:08:54;102734.1;;;15.7;83.2
72124;BME280;63818;37.134;-8.548;2024-02-04T21:13:45;102726.9;;;15.7;83.0
72124;BME280;63818;37.134;-8.548;2024-02-04T21:18:34;102733.6;;;15.6;83.2
72124;BME280;63818;37.134;-8.548;2024-02-04T21:23:23;102726.4;;;15.6;82.8
72124;BME280;63818;37.134;-8.548;2024-02-04T21:28:11;102728.6;;;15.6;83.0
72124;BME280;63818;37.134;-8.548;2024-02-04T21:33:02;102725.1;;;15.6;83.3
72124;BME280;63818;37.134;-8.548;2024-02-04T21:37:49;102726.8;;;15.5;83.3
72124;BME280;63818;37.134;-8.548;2024-02-04T21:42:37;102728.4;;;15.5;82.8
72124;BME280;63818;37.134;-8.548;2024-02-04T21:47:25;102734.6;;;15.5;83.0
72124;BME280;63818;37.134;-8.548;2024-02-04T21:52:15;102728.2;;;15.4;82.7
72124;BME280;63818;37.134;-8.548;2024-02-04T21:57:04;102732.6;;;15.4;82.9
72124;BME280;63818;37.134;-8.548;2024-02-04T22:01:52;102727.1;;;15.4;82.8
72124;BME280;63818;37.134;-8.548;2024-02-04T22:06:40;102725.0;;;15.4;82.8
72124;BME280;63818;37.134;-8.548;2024-02-04T22:11:31;102736.6;;;15.4;82.8
72124;BME280;63818;37.134;-8.548;2024-02-04T22:16:19;102731.2;;;15.4;83.1
72124;BME280;63818;37.134;-8.548;2024-02-04T22:21:08;102730.2;;;15.3;82.9
72124;BME280;63818;37.134;-8.548;2024-02-04T22:25:56;102728.9;;;15.3;82.5
72124;BME280;63818;37.134;-8.548;2024-02-04T22:30:46;102724.6;;;15.3;82.8
72124;BME280;63818;37.134;-8.548;2024-02-04T22:35:35;102715.6;;;15.3;83.0
72124;BME280;63818;37.134;-8.548;2024-02-04T22:40:27;102716.0;;;15.2;82.9
72124;BME280;63818;37.134;-8.548;2024-02-04T22:45:17;102720.1;;;15.2;83.7
72124;BME280;63818;37.134;-8.548;2024-02-04T22:50:06;102715.8;;;15.1;83.5
72124;BME280;63818;37.134;-8.548;2024-02-04T22:54:54;102712.3;;;15.1;83.5
72124;BME280;63818;37.134;-8.548;2024-02-04T22:59:42;102711.0;;;15.1;83.9
72124;BME280;63818;37.134;-8.548;2024-02-04T23:04:41;102718.3;;;15.1;84.2
72124;BME280;63818;37.134;-8.548;2024-02-04T23:09:29;102717.0;;;15.1;83.7
72124;BME280;63818;37.134;-8.548;2024-02-04T23:14:17;102719.2;;;15.1;83.9
72124;BME280;63818;37.134;-8.548;2024-02-04T23:19:05;102720.8;;;15.0;83.7
72124;BME280;63818;37.134;-8.548;2024-02-04T23:23:53;102745.4;;;15.1;83.9
72124;BME280;63818;37.134;-8.548;2024-02-04T23:28:43;102741.1;;;15.1;83.9
72124;BME280;63818;37.134;-8.548;2024-02-04T23:33:32;102757.9;;;15.1;84.2
72124;BME280;63818;37.134;-8.548;2024-02-04T23:38:19;102746.2;;;15.1;84.4
72124;BME280;63818;37.134;-8.548;2024-02-04T23:43:08;102721.4;;;15.0;83.6
72124;BME280;63818;37.134;-8.548;2024-02-04T23:47:58;102728.0;;;14.9;84.0
72124;BME280;63818;37.134;-8.548;2024-02-04T23:52:46;102722.3;;;14.9;84.1
72124;BME280;63818;37.134;-8.548;2024-02-04T23:57:36;102727.8;;;14.9;84.3
